createdAt,value
2019-04-28T00:00:51.272Z,5.43
2019-04-28T00:03:22.570Z,5.13
2019-04-28T00:05:53.072Z,7.20
2019-04-28T00:08:23.723Z,8.93
2019-04-28T00:10:54.141Z,6.93
2019-04-28T00:13:24.266Z,10.33
2019-04-28T00:15:55.055Z,6.00
2019-04-28T00:18:25.812Z,6.08
2019-04-28T00:21:13.493Z,7.53
2019-04-28T00:24:02.633Z,9.88
2019-04-28T00:26:47.534Z,13.83
2019-04-28T00:29:18.045Z,11.80
2019-04-28T00:31:48.473Z,7.75
2019-04-28T00:34:18.650Z,5.35
2019-04-28T00:36:51.299Z,7.03
2019-04-28T00:39:22.768Z,6.92
2019-04-28T00:41:53.145Z,7.22
2019-04-28T00:44:24.129Z,8.53
2019-04-28T00:46:54.620Z,8.00
2019-04-28T00:49:51.790Z,7.08
2019-04-28T00:52:22.397Z,9.60
2019-04-28T00:54:52.826Z,16.02
2019-04-28T00:57:23.358Z,7.45
2019-04-28T00:59:58.092Z,7.22
2019-04-28T01:02:33.528Z,6.03
2019-04-28T01:05:05.085Z,8.58
2019-04-28T01:07:35.220Z,5.25
2019-04-28T01:10:06.398Z,7.10
2019-04-28T01:12:37.923Z,4.12
2019-04-28T01:15:13.319Z,6.30
2019-04-28T01:18:15.898Z,8.25
2019-04-28T01:20:46.417Z,5.70
2019-04-28T01:23:16.932Z,5.42
2019-04-28T01:25:47.291Z,5.95
2019-04-28T01:28:17.373Z,9.97
2019-04-28T01:31:10.654Z,3.73
2019-04-28T01:34:02.640Z,5.40
2019-04-28T01:36:35.900Z,7.08
2019-04-28T01:39:10.143Z,5.70
2019-04-28T01:41:40.287Z,5.55
2019-04-28T01:44:11.072Z,5.33
2019-04-28T01:46:42.720Z,4.12
2019-04-28T01:49:19.623Z,3.87
2019-04-28T01:52:02.486Z,4.90
2019-04-28T01:54:32.797Z,7.12
2019-04-28T01:57:03.391Z,5.78
2019-04-28T01:59:33.630Z,7.55
2019-04-28T02:02:04.746Z,8.88
2019-04-28T02:04:35.324Z,11.85
2019-04-28T02:07:05.759Z,4.50
2019-04-28T02:09:35.946Z,3.50
2019-04-28T02:12:06.357Z,5.20
2019-04-28T02:14:36.484Z,5.12
2019-04-28T02:17:06.787Z,5.35
2019-04-28T02:19:36.980Z,6.00
2019-04-28T02:22:22.163Z,4.28
2019-04-28T02:24:52.610Z,3.60
2019-04-28T02:27:22.736Z,6.67
2019-04-28T02:29:53.176Z,6.65
2019-04-28T02:32:24.401Z,8.03
2019-04-28T02:34:55.584Z,9.28
2019-04-28T02:37:35.269Z,6.33
2019-04-28T02:40:06.015Z,7.97
2019-04-28T02:42:36.651Z,4.85
2019-04-28T02:45:07.901Z,8.18
2019-04-28T02:47:41.647Z,6.53
2019-04-28T02:50:21.105Z,4.42
2019-04-28T02:53:33.158Z,5.72
2019-04-28T02:56:00.917Z,10.25
2019-04-28T02:58:31.479Z,4.90
2019-04-28T03:01:11.269Z,13.78
2019-04-28T03:03:33.743Z,3.77
2019-04-28T03:06:04.162Z,4.20
2019-04-28T03:08:34.462Z,5.15
2019-04-28T03:11:05.036Z,6.03
2019-04-28T03:13:35.772Z,6.95
2019-04-28T03:16:06.096Z,5.78
2019-04-28T03:18:36.417Z,5.20
2019-04-28T03:21:06.613Z,2.95
2019-04-28T03:23:37.458Z,7.15
2019-04-28T03:26:26.507Z,5.45
2019-04-28T03:29:02.049Z,6.50
2019-04-28T03:32:08.031Z,5.60
2019-04-28T03:34:12.879Z,6.75
2019-04-28T03:36:41.632Z,6.95
2019-04-28T03:39:12.028Z,4.90
2019-04-28T03:41:42.144Z,7.35
2019-04-28T03:44:12.822Z,6.50
2019-04-28T03:46:51.035Z,6.22
2019-04-28T03:49:33.848Z,5.42
2019-04-28T03:52:04.685Z,5.25
2019-04-28T03:54:34.981Z,6.85
2019-04-28T03:57:05.231Z,6.35
2019-04-28T03:59:36.071Z,7.10
2019-04-28T04:02:06.784Z,6.17
2019-04-28T04:04:37.108Z,5.58
2019-04-28T04:07:07.645Z,4.05
2019-04-28T04:10:01.077Z,6.70
2019-04-28T04:12:50.947Z,4.47
2019-04-28T04:15:43.003Z,6.05
2019-04-28T04:18:21.034Z,8.30
2019-04-28T04:20:51.294Z,5.03
2019-04-28T04:23:23.292Z,9.80
2019-04-28T04:25:53.860Z,8.13
2019-04-28T04:28:27.298Z,6.60
2019-04-28T04:31:00.486Z,6.45
2019-04-28T04:33:31.184Z,5.42
2019-04-28T04:36:01.924Z,6.70
2019-04-28T04:38:32.096Z,4.72
2019-04-28T04:41:02.508Z,3.98
2019-04-28T04:43:33.108Z,7.80
2019-04-28T04:46:15.158Z,8.45
2019-04-28T04:48:45.886Z,5.00
2019-04-28T04:51:16.161Z,9.38
2019-04-28T04:53:46.539Z,7.92
2019-04-28T04:56:16.731Z,10.38
2019-04-28T04:58:47.619Z,11.73
2019-04-28T05:01:37.261Z,11.05
2019-04-28T05:04:16.712Z,12.45
2019-04-28T05:06:47.436Z,13.43
2019-04-28T05:09:19.519Z,12.05
2019-04-28T05:11:50.081Z,5.75
2019-04-28T05:14:20.214Z,8.33
2019-04-28T05:16:50.326Z,6.78
2019-04-28T05:19:20.552Z,6.72
2019-04-28T05:21:50.687Z,9.28
2019-04-28T05:24:36.904Z,7.50
2019-04-28T05:27:07.236Z,6.85
2019-04-28T05:29:39.724Z,6.50
2019-04-28T05:32:10.781Z,11.55
2019-04-28T05:34:46.527Z,10.38
2019-04-28T05:37:12.883Z,4.92
2019-04-28T05:39:43.220Z,9.85
2019-04-28T05:42:13.320Z,10.00
2019-04-28T05:44:43.357Z,10.40
2019-04-28T05:47:18.073Z,8.93
2019-04-28T05:50:16.056Z,7.83
2019-04-28T05:53:01.730Z,8.95
2019-04-28T05:55:55.949Z,5.00
2019-04-28T05:58:40.091Z,5.53
2019-04-28T06:01:31.921Z,7.33
2019-04-28T06:04:02.534Z,12.55
2019-04-28T06:06:36.763Z,4.97
2019-04-28T06:09:29.932Z,9.88
2019-04-28T06:12:00.627Z,6.45
2019-04-28T06:14:30.927Z,6.42
2019-04-28T06:17:03.960Z,12.65
2019-04-28T06:19:33.005Z,9.65
2019-04-28T06:22:03.271Z,6.17
2019-04-28T06:24:33.573Z,9.48
2019-04-28T06:27:03.687Z,6.12
2019-04-28T06:29:33.804Z,10.87
2019-04-28T06:32:04.706Z,5.40
2019-04-28T06:34:34.976Z,5.67
2019-04-28T06:37:05.314Z,6.63
2019-04-28T06:39:35.676Z,7.03
2019-04-28T06:42:06.019Z,10.00
2019-04-28T06:44:36.418Z,8.80
2019-04-28T06:47:06.677Z,7.13
2019-04-28T06:49:36.913Z,8.90
2019-04-28T06:52:07.175Z,8.80
2019-04-28T06:54:37.495Z,6.50
2019-04-28T06:57:08.034Z,6.90
2019-04-28T06:59:38.934Z,3.60
2019-04-28T07:02:09.388Z,6.43
2019-04-28T07:04:39.668Z,4.73
2019-04-28T07:07:10.403Z,9.30
2019-04-28T07:09:40.931Z,14.43
2019-04-28T07:12:11.360Z,8.63
2019-04-28T07:14:41.571Z,12.70
2019-04-28T07:17:11.626Z,16.93
2019-04-28T07:19:43.521Z,11.97
2019-04-28T07:22:28.222Z,12.53
2019-04-28T07:24:58.380Z,6.97
2019-04-28T07:27:28.542Z,7.70
2019-04-28T07:29:59.968Z,7.80
2019-04-28T07:32:30.072Z,8.57
2019-04-28T07:35:00.560Z,7.40
2019-04-28T07:37:30.799Z,8.57
2019-04-28T07:40:01.097Z,15.20
2019-04-28T07:42:31.366Z,23.70
2019-04-28T07:45:01.818Z,9.23
2019-04-28T07:47:32.683Z,8.73
2019-04-28T07:50:03.108Z,7.27
2019-04-28T07:52:57.888Z,7.90
2019-04-28T07:55:29.368Z,9.03
2019-04-28T07:57:59.734Z,10.10
2019-04-28T08:00:31.021Z,6.87
2019-04-28T08:03:01.802Z,4.43
2019-04-28T08:05:32.354Z,10.63
2019-04-28T08:08:03.073Z,4.87
2019-04-28T08:10:33.843Z,4.23
2019-04-28T08:13:04.807Z,6.83
2019-04-28T08:15:35.285Z,4.37
2019-04-28T08:18:05.932Z,6.73
2019-04-28T08:20:36.491Z,7.73
2019-04-28T08:23:07.421Z,6.13
2019-04-28T08:25:41.473Z,6.63
2019-04-28T08:28:11.840Z,8.07
2019-04-28T08:30:42.316Z,6.27
2019-04-28T08:33:36.312Z,4.03
2019-04-28T08:36:06.813Z,7.70
2019-04-28T08:38:37.333Z,7.30
2019-04-28T08:41:07.780Z,6.83
2019-04-28T08:43:38.316Z,5.20
2019-04-28T08:46:08.803Z,6.60
2019-04-28T08:48:41.484Z,8.43
2019-04-28T08:51:12.259Z,4.37
2019-04-28T08:53:42.392Z,4.87
2019-04-28T08:56:12.766Z,7.10
2019-04-28T08:58:42.925Z,6.40
2019-04-28T09:01:13.521Z,9.67
2019-04-28T09:03:43.671Z,11.97
2019-04-28T09:06:14.484Z,9.40
2019-04-28T09:08:44.774Z,11.47
2019-04-28T09:11:16.543Z,8.10
2019-04-28T09:13:46.692Z,9.33
2019-04-28T09:16:16.765Z,7.80
2019-04-28T09:18:47.159Z,8.17
2019-04-28T09:21:17.576Z,10.70
2019-04-28T09:23:47.916Z,11.00
2019-04-28T09:26:23.657Z,10.17
2019-04-28T09:28:54.651Z,13.37
2019-04-28T09:31:25.934Z,8.40
2019-04-28T09:33:56.267Z,15.40
2019-04-28T09:36:26.353Z,14.90
2019-04-28T09:38:58.438Z,20.40
2019-04-28T09:41:29.715Z,13.17
2019-04-28T09:44:09.149Z,18.03
2019-04-28T09:46:41.049Z,18.17
2019-04-28T09:49:11.733Z,15.47
2019-04-28T09:51:43.228Z,11.27
2019-04-28T09:54:14.743Z,24.33
2019-04-28T09:56:56.180Z,15.00
2019-04-28T09:59:16.824Z,23.00
2019-04-28T10:01:46.948Z,12.80
2019-04-28T10:04:17.119Z,19.17
2019-04-28T10:06:47.379Z,11.03
2019-04-28T10:09:17.517Z,12.47
2019-04-28T10:11:48.010Z,18.47
2019-04-28T10:14:19.006Z,10.60
2019-04-28T10:16:50.302Z,9.40
2019-04-28T10:19:21.789Z,11.67
2019-04-28T10:21:52.402Z,11.27
2019-04-28T10:24:23.421Z,9.60
2019-04-28T10:26:53.501Z,13.97
2019-04-28T10:29:32.953Z,15.57
2019-04-28T10:32:04.709Z,11.07
2019-04-28T10:34:34.910Z,21.53
2019-04-28T10:37:06.256Z,8.63
2019-04-28T10:39:49.062Z,9.37
2019-04-28T10:42:19.204Z,13.63
2019-04-28T10:44:50.430Z,11.50
2019-04-28T10:47:23.236Z,7.17
2019-04-28T10:49:53.954Z,11.97
2019-04-28T10:52:25.188Z,15.97
2019-04-28T10:54:56.719Z,10.67
2019-04-28T10:57:27.152Z,13.03
2019-04-28T10:59:58.037Z,11.57
2019-04-28T11:02:28.480Z,11.10
2019-04-28T11:05:09.194Z,7.10
2019-04-28T11:07:40.077Z,15.07
2019-04-28T11:10:20.867Z,10.87
2019-04-28T11:12:51.367Z,10.63
2019-04-28T11:15:46.681Z,6.97
2019-04-28T11:18:17.858Z,15.23
2019-04-28T11:20:48.175Z,12.90
2019-04-28T11:26:06.130Z,11.10
2019-04-28T11:28:37.902Z,8.83
2019-04-28T11:31:08.510Z,10.97
2019-04-28T11:33:50.967Z,11.37
2019-04-28T11:36:22.257Z,12.93
2019-04-28T11:38:52.590Z,10.87
2019-04-28T11:41:22.959Z,13.70
2019-04-28T11:43:54.009Z,18.77
2019-04-28T11:46:25.743Z,7.60
2019-04-28T11:48:55.881Z,13.07
2019-04-28T11:51:26.753Z,9.60
2019-04-28T11:53:56.902Z,14.37
2019-04-28T11:56:27.490Z,11.20
2019-04-28T11:58:57.498Z,9.93
2019-04-28T12:01:29.592Z,13.10
2019-04-28T12:04:02.108Z,14.17
2019-04-28T12:06:32.764Z,11.87
2019-04-28T12:09:22.009Z,18.40
2019-04-28T12:11:52.867Z,9.30
2019-04-28T12:14:31.428Z,13.23
2019-04-28T12:17:28.501Z,13.53
2019-04-28T12:20:04.412Z,14.70
2019-04-28T12:22:34.599Z,18.37
2019-04-28T12:25:05.525Z,28.30
2019-04-28T12:27:35.612Z,21.17
2019-04-28T12:30:06.544Z,14.67
2019-04-28T12:32:37.403Z,18.30
2019-04-28T12:35:07.959Z,11.33
2019-04-28T12:37:38.094Z,12.67
2019-04-28T12:40:08.900Z,15.17
2019-04-28T12:42:39.013Z,7.83
2019-04-28T12:45:11.412Z,11.60
2019-04-28T12:47:45.002Z,19.10
2019-04-28T12:50:25.330Z,18.87
2019-04-28T12:52:56.779Z,10.40
2019-04-28T12:55:27.561Z,16.10
2019-04-28T12:57:58.231Z,10.73
2019-04-28T13:00:37.841Z,10.13
2019-04-28T13:03:16.097Z,14.47
2019-04-28T13:06:00.123Z,12.20
2019-04-28T13:08:19.531Z,10.50
2019-04-28T13:10:53.509Z,15.07
2019-04-28T13:13:27.216Z,9.97
2019-04-28T13:15:57.393Z,16.13
2019-04-28T13:18:28.433Z,34.23
2019-04-28T13:21:01.850Z,12.40
2019-04-28T13:23:31.952Z,10.37
2019-04-28T13:26:02.787Z,24.00
2019-04-28T13:28:32.956Z,18.83
2019-04-28T13:31:05.927Z,19.50
2019-04-28T13:33:37.402Z,11.40
2019-04-28T13:36:14.510Z,11.20
2019-04-28T13:38:44.455Z,9.10
2019-04-28T13:41:15.386Z,18.27
2019-04-28T13:43:47.408Z,15.80
2019-04-28T13:46:18.877Z,16.03
2019-04-28T13:48:50.209Z,17.03
2019-04-28T13:51:22.057Z,18.77
2019-04-28T13:53:52.533Z,17.30
2019-04-28T13:56:23.596Z,18.03
2019-04-28T13:59:17.626Z,16.20
2019-04-28T14:02:05.551Z,22.50
2019-04-28T14:04:52.899Z,14.77
2019-04-28T14:07:23.882Z,24.40
2019-04-28T14:09:54.489Z,21.20
2019-04-28T14:12:25.119Z,17.60
2019-04-28T14:14:55.810Z,23.53
2019-04-28T14:17:26.727Z,21.37
2019-04-28T14:19:57.096Z,18.23
2019-04-28T14:22:27.353Z,24.07
2019-04-28T14:24:59.474Z,19.70
2019-04-28T14:27:30.360Z,21.20
2019-04-28T14:30:00.864Z,28.00
2019-04-28T14:32:31.562Z,18.80
2019-04-28T14:35:02.092Z,19.83
2019-04-28T14:37:32.576Z,17.50
2019-04-28T14:40:03.274Z,20.37
2019-04-28T14:42:33.974Z,18.73
2019-04-28T14:45:04.559Z,18.53
2019-04-28T14:47:35.246Z,14.93
2019-04-28T14:50:06.060Z,22.70
2019-04-28T14:52:36.665Z,17.20
2019-04-28T14:55:07.581Z,16.90
2019-04-28T14:57:38.062Z,16.60
2019-04-28T15:00:10.302Z,14.50
2019-04-28T15:03:03.013Z,19.37
2019-04-28T15:05:45.689Z,20.93
2019-04-28T15:08:35.162Z,26.73
2019-04-28T15:11:20.397Z,21.03
2019-04-28T15:13:50.760Z,13.30
2019-04-28T15:16:23.350Z,18.57
2019-04-28T15:18:53.874Z,21.07
2019-04-28T15:21:24.491Z,19.40
2019-04-28T15:23:55.123Z,28.57
2019-04-28T15:26:25.760Z,18.80
2019-04-28T15:28:56.271Z,18.30
2019-04-28T15:31:26.766Z,26.87
2019-04-28T15:33:58.947Z,21.63
2019-04-28T15:36:29.552Z,17.90
2019-04-28T15:39:00.083Z,18.40
2019-04-28T15:41:30.875Z,16.80
2019-04-28T15:44:01.441Z,17.43
2019-04-28T15:46:32.135Z,20.77
2019-04-28T15:49:02.798Z,19.93
2019-04-28T15:51:33.781Z,23.47
2019-04-28T15:54:03.973Z,18.07
2019-04-28T15:56:59.319Z,24.63
2019-04-28T15:59:29.737Z,19.90
2019-04-28T16:02:00.912Z,23.13
2019-04-28T16:04:34.483Z,14.67
2019-04-28T16:07:25.065Z,29.63
2019-04-28T16:09:51.366Z,19.03
2019-04-28T16:12:22.949Z,15.60
2019-04-28T16:14:54.377Z,17.80
2019-04-28T16:17:25.899Z,19.40
2019-04-28T16:19:56.590Z,20.37
2019-04-28T16:22:27.659Z,20.50
2019-04-28T16:25:00.146Z,24.67
2019-04-28T16:27:32.180Z,25.40
2019-04-28T16:30:02.942Z,28.67
2019-04-28T16:32:33.209Z,27.10
2019-04-28T16:35:03.879Z,25.70
2019-04-28T16:37:38.819Z,21.20
2019-04-28T16:40:09.527Z,23.03
2019-04-28T16:43:06.702Z,21.43
2019-04-28T16:45:40.269Z,21.17
2019-04-28T16:48:11.623Z,17.43
2019-04-28T16:50:42.160Z,19.83
2019-04-28T16:53:13.244Z,31.70
2019-04-28T16:56:01.956Z,24.73
2019-04-28T16:59:00.464Z,21.87
2019-04-28T17:01:55.975Z,20.07
2019-04-28T17:04:26.472Z,19.87
2019-04-28T17:06:56.898Z,17.47
2019-04-28T17:09:27.634Z,25.77
2019-04-28T17:11:58.423Z,19.07
2019-04-28T17:14:29.007Z,19.60
2019-04-28T17:16:59.714Z,31.00
2019-04-28T17:19:30.273Z,24.77
2019-04-28T17:22:00.784Z,21.07
2019-04-28T17:24:31.315Z,23.57
2019-04-28T17:27:01.884Z,22.80
2019-04-28T17:29:32.678Z,23.70
2019-04-28T17:32:03.328Z,27.37
2019-04-28T17:34:34.356Z,24.10
2019-04-28T17:37:05.489Z,19.83
2019-04-28T17:39:36.242Z,18.17
2019-04-28T17:42:08.444Z,13.23
2019-04-28T17:48:32.536Z,27.40
2019-04-28T17:51:04.853Z,24.60
2019-04-28T17:53:36.773Z,27.80
2019-04-28T17:56:07.667Z,24.20
2019-04-28T17:58:38.935Z,21.50
2019-04-28T18:01:27.986Z,18.03
2019-04-28T18:04:18.414Z,27.20
2019-04-28T18:06:54.146Z,21.77
2019-04-28T18:09:24.938Z,20.47
2019-04-28T18:12:02.264Z,25.97
2019-04-28T18:14:33.279Z,19.57
2019-04-28T18:17:21.988Z,26.50
2019-04-28T18:19:52.871Z,21.82
2019-04-28T18:22:23.702Z,24.70
2019-04-28T18:24:54.191Z,26.60
2019-04-28T18:27:24.660Z,18.63
2019-04-28T18:29:55.658Z,31.17
2019-04-28T18:32:43.981Z,19.90
2019-04-28T18:35:36.840Z,27.60
2019-04-28T18:38:14.541Z,26.23
2019-04-28T18:41:02.399Z,23.53
2019-04-28T18:43:52.590Z,23.83
2019-04-28T18:46:27.103Z,15.50
2019-04-28T18:48:57.999Z,18.50
2019-04-28T18:51:28.610Z,20.93
2019-04-28T18:53:59.752Z,22.03
2019-04-28T18:56:30.176Z,16.27
2019-04-28T18:59:00.932Z,25.87
2019-04-28T19:02:09.712Z,23.37
2019-04-28T19:04:40.669Z,24.80
2019-04-28T19:07:13.832Z,30.10
2019-04-28T19:10:02.472Z,33.40
2019-04-28T19:13:02.598Z,21.93
2019-04-28T19:15:44.554Z,26.90
2019-04-28T19:18:20.964Z,17.32
2019-04-28T19:20:51.932Z,20.72
2019-04-28T19:23:23.251Z,22.00
2019-04-28T19:26:04.885Z,26.50
2019-04-28T19:28:35.788Z,26.23
2019-04-28T19:31:06.306Z,32.73
2019-04-28T19:33:36.828Z,19.03
2019-04-28T19:36:07.174Z,17.10
2019-04-28T19:38:37.836Z,18.70
2019-04-28T19:41:08.230Z,19.80
2019-04-28T19:43:38.685Z,17.97
2019-04-28T19:46:12.332Z,23.70
2019-04-28T19:48:42.930Z,21.63
2019-04-28T19:51:13.947Z,25.77
2019-04-28T19:53:44.561Z,13.20
2019-04-28T19:56:27.945Z,21.20
2019-04-28T19:59:20.247Z,19.40
2019-04-28T20:01:50.826Z,19.30
2019-04-28T20:04:21.698Z,19.77
2019-04-28T20:06:52.718Z,23.13
2019-04-28T20:09:23.816Z,25.13
2019-04-28T20:11:54.272Z,25.73
2019-04-28T20:14:24.933Z,23.80
2019-04-28T20:16:56.938Z,18.87
2019-04-28T20:19:27.569Z,24.50
2019-04-28T20:21:58.200Z,22.90
2019-04-28T20:24:28.909Z,24.60
2019-04-28T20:27:00.044Z,20.93
2019-04-28T20:29:30.726Z,20.63
2019-04-28T20:32:01.547Z,21.03
2019-04-28T20:34:32.155Z,20.53
2019-04-28T20:37:11.777Z,16.23
2019-04-28T20:39:43.882Z,21.03
2019-04-28T20:42:33.482Z,22.57
2019-04-28T20:45:04.738Z,18.10
2019-04-28T20:47:37.191Z,24.63
2019-04-28T20:50:09.702Z,16.20
2019-04-28T20:52:40.316Z,18.27
2019-04-28T20:55:11.639Z,16.90
2019-04-28T20:57:43.338Z,13.50
2019-04-28T21:00:15.109Z,21.67
2019-04-28T21:05:29.847Z,22.17
2019-04-28T21:08:01.538Z,14.93
2019-04-28T21:10:38.238Z,17.93
2019-04-28T21:13:05.512Z,18.40
2019-04-28T21:15:36.294Z,25.47
2019-04-28T21:18:07.758Z,15.67
2019-04-28T21:20:40.370Z,17.27
2019-04-28T21:23:11.572Z,23.13
2019-04-28T21:25:42.838Z,21.60
2019-04-28T21:28:15.001Z,23.87
2019-04-28T21:30:45.968Z,14.07
2019-04-28T21:33:18.459Z,16.47
2019-04-28T21:35:50.877Z,17.53
2019-04-28T21:38:21.741Z,18.07
2019-04-28T21:40:53.897Z,18.93
2019-04-28T21:43:46.481Z,23.70
2019-04-28T21:46:34.969Z,17.83
2019-04-28T21:49:22.447Z,16.13
2019-04-28T21:51:52.991Z,14.90
2019-04-28T21:54:24.960Z,27.60
2019-04-28T21:56:57.265Z,19.93
2019-04-28T21:59:28.947Z,21.67
2019-04-28T22:01:59.634Z,18.23
2019-04-28T22:04:30.574Z,20.30
2019-04-28T22:07:01.292Z,16.60
2019-04-28T22:09:32.180Z,23.87
2019-04-28T22:12:03.551Z,18.10
2019-04-28T22:14:33.977Z,17.53
2019-04-28T22:17:04.274Z,22.77
2019-04-28T22:19:34.382Z,18.63
2019-04-28T22:22:06.061Z,15.53
2019-04-28T22:24:54.768Z,17.83
2019-04-28T22:27:29.996Z,16.60
2019-04-28T22:30:00.241Z,21.80
2019-04-28T22:32:36.958Z,23.47
2019-04-28T22:35:08.792Z,27.30
2019-04-28T22:37:39.939Z,25.10
2019-04-28T22:40:10.470Z,19.03
2019-04-28T22:42:40.824Z,24.80
2019-04-28T22:45:11.821Z,22.83
2019-04-28T22:47:42.422Z,17.97
2019-04-28T22:50:49.324Z,11.63
2019-04-28T22:53:22.157Z,18.03
2019-04-28T22:56:14.580Z,30.83
2019-04-28T22:58:55.669Z,18.50
2019-04-28T23:01:35.127Z,21.17
2019-04-28T23:04:37.177Z,15.03
2019-04-28T23:07:07.917Z,12.00
2019-04-28T23:09:38.481Z,10.87
2019-04-28T23:12:10.582Z,16.48
2019-04-28T23:14:41.001Z,18.23
2019-04-28T23:17:14.421Z,15.73
2019-04-28T23:19:44.891Z,18.30
2019-04-28T23:22:49.459Z,14.30
2019-04-28T23:25:19.994Z,15.63
2019-04-28T23:27:50.864Z,14.87
2019-04-28T23:30:39.471Z,21.10
2019-04-28T23:33:10.083Z,17.40
2019-04-28T23:35:56.519Z,17.87
2019-04-28T23:38:23.940Z,13.83
2019-04-28T23:41:12.000Z,21.40
2019-04-28T23:43:42.437Z,24.10
2019-04-28T23:46:13.089Z,19.03
2019-04-28T23:48:43.587Z,21.07
2019-04-28T23:51:25.646Z,20.30
2019-04-28T23:54:02.282Z,17.37
2019-04-28T23:56:32.757Z,26.53
2019-04-28T23:59:03.206Z,12.80
